Time;durP1;ratioP1;P1;durP2;ratioP2;P2;SDS_P1;SDS_P2;PMS_P1;PMS_P2;Temp;Humidity;BMP_temperature;BMP_pressure;BME280_temperature;BME280_humidity;BME280_pressure;Samples;Min_cycle;Max_cycle;Signal;HPM_P1;HPM_P2
2021/12/20 00:01:35;;;;;;;24.02;12.88;;;;;;;3.01;100.00;96965.34;4962886;28;20077;-51
2021/12/20 00:04:04;;;;;;;20.70;12.38;;;;;;;3.17;100.00;96959.31;4986630;28;20078;-52
2021/12/20 00:06:34;;;;;;;18.00;11.13;;;;;;;3.05;100.00;96968.63;4982217;28;20071;-56
2021/12/20 00:09:03;;;;;;;16.33;9.03;;;;;;;2.89;100.00;96963.44;4980556;28;20066;-48
2021/12/20 00:11:32;;;;;;;18.60;11.70;;;;;;;3.08;100.00;96965.84;4986668;28;20884;-51
2021/12/20 00:14:00;;;;;;;11.27;6.88;;;;;;;3.12;100.00;96971.72;4983025;28;20547;-52
2021/12/20 00:16:29;;;;;;;19.67;11.10;;;;;;;3.32;100.00;96963.63;4982581;28;20985;-53
2021/12/20 00:18:57;;;;;;;19.80;12.02;;;;;;;3.21;100.00;96952.97;4986431;28;20204;-51
2021/12/20 00:21:26;;;;;;;18.92;10.68;;;;;;;3.04;100.00;96956.53;4984584;28;20065;-47
2021/12/20 00:23:56;;;;;;;21.58;11.32;;;;;;;3.51;100.00;96961.66;4980838;28;20066;-47
2021/12/20 00:26:24;;;;;;;23.20;12.57;;;;;;;3.40;100.00;96963.19;4973828;28;20067;-48
2021/12/20 00:28:52;;;;;;;17.42;10.38;;;;;;;3.28;100.00;96975.16;4966849;28;20063;-59
2021/12/20 00:31:21;;;;;;;17.98;10.55;;;;;;;3.21;100.00;96966.00;4965460;28;20074;-49
2021/12/20 00:33:49;;;;;;;18.27;11.48;;;;;;;3.28;100.00;96965.56;4983876;28;20074;-51
2021/12/20 00:36:21;;;;;;;24.23;13.18;;;;;;;3.43;100.00;96953.41;4980469;28;20417;-50
2021/12/20 00:41:38;;;;;;;21.65;12.82;;;;;;;3.45;100.00;96948.97;4971544;28;20078;-49
2021/12/20 00:44:06;;;;;;;20.52;11.30;;;;;;;3.20;100.00;96952.16;4972339;28;20058;-47
2021/12/20 00:46:53;;;;;;;22.80;12.70;;;;;;;3.32;100.00;96953.19;4978476;28;20131;-50
2021/12/20 00:49:21;;;;;;;20.17;12.18;;;;;;;3.24;100.00;96958.03;4988590;28;20092;-48
2021/12/20 00:51:50;;;;;;;19.00;10.75;;;;;;;3.35;100.00;96953.03;4982632;28;20086;-47
2021/12/20 00:54:18;;;;;;;21.65;13.60;;;;;;;3.61;100.00;96954.13;4965415;28;20074;-55
2021/12/20 00:56:49;;;;;;;23.17;11.77;;;;;;;3.21;100.00;96938.19;4966312;28;20066;-47
2021/12/20 00:59:17;;;;;;;23.50;12.57;;;;;;;3.38;100.00;96945.03;4963106;28;20066;-48
2021/12/20 01:01:45;;;;;;;22.15;12.35;;;;;;;3.49;100.00;96950.47;4960624;28;20075;-53
2021/12/20 01:04:14;;;;;;;20.60;12.52;;;;;;;3.33;100.00;96958.31;4960300;28;20178;-51
2021/12/20 01:06:42;;;;;;;23.42;13.55;;;;;;;3.57;100.00;96950.84;4966233;28;20078;-49
2021/12/20 01:09:11;;;;;;;21.25;12.27;;;;;;;3.49;100.00;96950.47;4961974;28;20074;-54
2021/12/20 01:11:41;;;;;;;24.65;12.75;;;;;;;3.43;100.00;96948.22;4964253;28;20082;-47
2021/12/20 01:14:21;;;;;;;;;;;;;;;3.40;100.00;96948.38;4975173;28;20736;-52
2021/12/20 01:16:50;;;;;;;20.83;11.65;;;;;;;3.30;100.00;96958.53;4976590;28;20383;-49
2021/12/20 01:19:19;;;;;;;23.65;12.00;;;;;;;3.31;100.00;96961.97;4962006;28;20094;-52
2021/12/20 01:21:48;;;;;;;24.30;12.63;;;;;;;3.38;100.00;96960.69;4966162;28;20086;-48
2021/12/20 01:24:16;;;;;;;22.35;12.65;;;;;;;3.54;100.00;96955.41;4959941;28;20067;-49
2021/12/20 01:26:44;;;;;;;24.40;13.10;;;;;;;3.32;100.00;96967.06;4966416;28;20058;-49
2021/12/20 01:29:14;;;;;;;25.08;13.23;;;;;;;3.45;100.00;96956.78;4974080;28;20072;-53
2021/12/20 01:31:43;;;;;;;22.20;12.55;;;;;;;3.42;100.00;96956.13;4973693;28;20521;-51
2021/12/20 01:34:11;;;;;;;21.73;12.35;;;;;;;3.45;100.00;96964.59;4960422;28;20170;-50
2021/12/20 01:36:39;;;;;;;22.98;12.93;;;;;;;3.48;100.00;96945.34;4964813;28;20114;-53
2021/12/20 01:39:08;;;;;;;18.83;10.70;;;;;;;3.32;100.00;96948.00;4961398;28;20083;-48
2021/12/20 01:41:39;;;;;;;23.92;13.02;;;;;;;3.23;100.00;96956.31;4962617;28;20070;-46
2021/12/20 01:44:07;;;;;;;;;;;;;;;3.49;100.00;96955.69;4960984;28;20062;-48
2021/12/20 01:46:37;;;;;;;23.45;13.07;;;;;;;3.57;100.00;96955.22;4966682;28;20004;-50
2021/12/20 01:49:10;;;;;;;25.50;14.25;;;;;;;3.27;100.00;96952.66;4988518;28;20081;-56
2021/12/20 01:51:50;;;;;;;23.05;12.68;;;;;;;3.38;100.00;96954.63;4977930;28;20078;-53
2021/12/20 01:54:19;;;;;;;24.15;13.50;;;;;;;3.55;100.00;96950.13;4962091;28;20536;-51
2021/12/20 01:56:48;;;;;;;21.38;11.73;;;;;;;3.33;100.00;96942.69;4976619;28;20046;-55
2021/12/20 01:59:17;;;;;;;23.00;12.65;;;;;;;3.57;100.00;96936.97;4973433;28;20081;-52
2021/12/20 02:01:46;;;;;;;25.15;14.27;;;;;;;3.56;100.00;96938.75;4961904;28;20073;-58
2021/12/20 02:04:15;;;;;;;23.85;13.40;;;;;;;3.47;100.00;96946.25;4961345;28;20102;-53
2021/12/20 02:06:47;;;;;;;19.25;11.23;;;;;;;3.54;100.00;96951.06;4964124;28;20086;-51
2021/12/20 02:09:18;;;;;;;24.13;12.85;;;;;;;3.52;100.00;96946.84;4979520;28;20058;-49
2021/12/20 02:11:55;;;;;;;23.55;13.50;;;;;;;3.52;100.00;96950.28;4963323;28;20094;-54
2021/12/20 02:14:23;;;;;;;23.27;13.20;;;;;;;3.48;100.00;96943.56;4970023;28;20065;-59
2021/12/20 02:16:53;;;;;;;25.55;14.00;;;;;;;3.63;100.00;96941.84;4982661;28;20070;-52
2021/12/20 02:19:21;;;;;;;25.67;14.13;;;;;;;3.77;100.00;96934.03;4978057;28;20121;-51
2021/12/20 02:21:51;;;;;;;24.52;13.93;;;;;;;3.94;100.00;96937.41;4986609;28;20510;-55
2021/12/20 02:24:19;;;;;;;28.17;13.32;;;;;;;3.73;100.00;96936.91;4982947;28;20069;-58
2021/12/20 02:26:50;;;;;;;26.83;14.32;;;;;;;3.96;100.00;96939.00;4981574;28;20062;-55
2021/12/20 02:29:26;;;;;;;23.15;14.10;;;;;;;4.15;100.00;96933.50;4981407;28;20074;-54
2021/12/20 02:37:40;;;;;;;26.70;14.15;;;;;;;3.79;100.00;96932.19;4952758;28;20066;-55
2021/12/20 02:40:09;;;;;;;21.20;12.07;;;;;;;3.57;100.00;96932.59;4980783;28;20677;-50
2021/12/20 02:42:40;;;;;;;25.25;14.63;;;;;;;3.62;100.00;96928.91;4959297;28;20509;-52
2021/12/20 02:45:14;;;;;;;25.45;14.05;;;;;;;3.62;100.00;96932.34;4962227;28;20559;-57
2021/12/20 02:47:45;;;;;;;24.55;12.90;;;;;;;3.78;100.00;96924.44;4981246;28;20416;-52
2021/12/20 02:50:15;;;;;;;27.85;13.98;;;;;;;4.00;100.00;96927.44;4979657;28;20480;-53
2021/12/20 02:52:45;;;;;;;24.95;12.90;;;;;;;3.66;100.00;96922.56;4981774;28;20050;-52
2021/12/20 02:55:13;;;;;;;26.30;14.07;;;;;;;3.48;100.00;96920.13;4978952;28;20085;-55
2021/12/20 02:57:43;;;;;;;25.80;14.30;;;;;;;3.77;100.00;96914.94;4987683;28;20505;-55
2021/12/20 03:00:12;;;;;;;25.57;14.10;;;;;;;3.59;100.00;96916.88;4980643;28;20524;-51
2021/12/20 03:02:41;;;;;;;24.02;11.45;;;;;;;3.49;100.00;96916.56;4978140;28;20207;-55
2021/12/20 03:05:10;;;;;;;26.48;14.77;;;;;;;3.66;100.00;96919.97;4983485;28;20069;-50
2021/12/20 03:07:45;;;;;;;23.73;13.50;;;;;;;3.86;100.00;96914.41;4973997;28;20517;-53
2021/12/20 03:10:16;;;;;;;22.70;13.10;;;;;;;3.74;100.00;96922.94;4960062;28;20086;-48
2021/12/20 03:12:46;;;;;;;25.35;13.43;;;;;;;3.66;100.00;96927.78;4978423;28;20081;-55
2021/12/20 03:15:19;;;;;;;28.85;15.38;;;;;;;3.85;100.00;96927.50;4982150;28;20093;-57
2021/12/20 03:17:47;;;;;;;20.70;12.30;;;;;;;3.78;100.00;96917.44;4971350;28;20533;-53
2021/12/20 03:20:18;;;;;;;22.42;12.48;;;;;;;3.51;100.00;96914.72;4962792;28;20101;-50
2021/12/20 03:22:46;;;;;;;23.50;12.45;;;;;;;3.64;100.00;96908.78;4960273;28;20071;-51
2021/12/20 03:25:17;;;;;;;27.23;14.68;;;;;;;3.67;100.00;96919.03;4962208;28;20067;-50
2021/12/20 03:27:46;;;;;;;25.88;13.40;;;;;;;3.72;100.00;96922.22;4983452;28;20081;-54
2021/12/20 03:30:15;;;;;;;19.05;10.65;;;;;;;3.59;100.00;96921.25;4977902;28;20073;-50
2021/12/20 03:32:43;;;;;;;24.58;13.50;;;;;;;3.63;100.00;96926.19;4967283;28;20078;-58
2021/12/20 03:35:12;;;;;;;19.88;10.77;;;;;;;3.86;100.00;96919.63;4968990;28;20062;-51
2021/12/20 03:37:43;;;;;;;27.08;15.38;;;;;;;3.70;100.00;96924.91;4980988;28;20133;-51
2021/12/20 03:40:13;;;;;;;23.92;13.45;;;;;;;3.68;100.00;96925.91;4983145;28;20078;-55
2021/12/20 03:42:44;;;;;;;23.20;13.45;;;;;;;3.91;100.00;96925.38;4967746;28;20094;-52
2021/12/20 03:45:14;;;;;;;24.00;12.43;;;;;;;4.10;100.00;96926.91;4959849;28;20070;-48
2021/12/20 03:47:43;;;;;;;24.15;13.70;;;;;;;3.93;100.00;96928.75;4974965;28;20077;-53
2021/12/20 03:50:13;;;;;;;28.77;13.57;;;;;;;3.96;100.00;96923.34;4979447;28;20414;-52
2021/12/20 03:52:41;;;;;;;25.63;12.50;;;;;;;3.81;100.00;96924.25;4973898;28;20070;-52
2021/12/20 03:55:12;;;;;;;20.75;12.45;;;;;;;3.90;100.00;96926.31;4961405;28;20144;-54
2021/12/20 03:57:42;;;;;;;;;;;;;;;4.04;100.00;96926.31;4967204;28;20054;-50
2021/12/20 04:00:12;;;;;;;17.42;9.20;;;;;;;3.91;100.00;96927.16;4964363;28;19961;-57
2021/12/20 04:02:43;;;;;;;24.17;12.35;;;;;;;3.64;100.00;96924.41;4960921;28;20769;-50
2021/12/20 04:05:13;;;;;;;23.63;12.18;;;;;;;3.89;100.00;96924.66;4962720;28;20077;-54
2021/12/20 04:07:41;;;;;;;20.05;10.95;;;;;;;3.85;100.00;96932.72;4963763;28;20082;-53
2021/12/20 04:10:11;;;;;;;22.45;12.30;;;;;;;3.75;100.00;96933.31;4965327;28;20086;-49
2021/12/20 04:12:39;;;;;;;25.80;13.13;;;;;;;3.97;100.00;96927.63;4982109;28;20089;-52
2021/12/20 04:15:10;;;;;;;20.08;11.10;;;;;;;3.72;100.00;96927.44;4961624;28;20071;-52
2021/12/20 04:17:38;;;;;;;27.17;13.73;;;;;;;3.68;100.00;96928.50;4957247;28;20067;-53
2021/12/20 04:20:08;;;;;;;24.63;13.20;;;;;;;3.75;100.00;96922.88;4956988;28;20063;-47
2021/12/20 04:22:36;;;;;;;26.95;13.98;;;;;;;3.95;100.00;96931.25;4962329;28;20075;-58
2021/12/20 04:25:06;;;;;;;24.98;13.57;;;;;;;3.76;100.00;96928.91;4965789;28;20070;-52
2021/12/20 04:27:35;;;;;;;27.07;15.03;;;;;;;3.70;100.00;96930.09;4958518;28;20541;-51
2021/12/20 04:30:09;;;;;;;25.77;14.18;;;;;;;3.83;100.00;96932.84;4959245;28;20363;-49
2021/12/20 04:32:40;;;;;;;25.35;12.98;;;;;;;3.98;100.00;96939.72;4957696;28;20062;-47
2021/12/20 04:35:09;;;;;;;26.67;13.73;;;;;;;3.87;100.00;96934.31;4964966;28;20424;-54
2021/12/20 04:37:40;;;;;;;25.27;12.90;;;;;;;3.91;100.00;96933.22;4981255;28;20096;-50
2021/12/20 04:40:14;;;;;;;21.15;11.50;;;;;;;3.60;100.00;96943.78;4981739;28;20086;-50
2021/12/20 04:42:43;;;;;;;20.30;10.30;;;;;;;3.71;100.00;96944.81;4984147;28;20715;-54
2021/12/20 04:45:11;;;;;;;24.85;13.75;;;;;;;3.71;100.00;96947.44;4963953;28;20501;-48
2021/12/20 04:47:41;;;;;;;24.70;13.38;;;;;;;4.02;100.00;96943.84;4961245;28;20066;-50
2021/12/20 04:50:29;;;;;;;26.10;13.23;;;;;;;3.83;100.00;96955.47;4959314;28;20045;-53
2021/12/20 04:52:58;;;;;;;24.20;12.90;;;;;;;3.92;100.00;96963.59;4966390;28;20063;-50
2021/12/20 04:55:27;;;;;;;24.98;14.48;;;;;;;4.03;100.00;96955.97;4982842;28;20465;-50
2021/12/20 04:57:56;;;;;;;22.83;13.38;;;;;;;4.02;100.00;96961.25;4981623;28;20108;-53
2021/12/20 05:00:28;;;;;;;25.30;13.50;;;;;;;4.02;100.00;96954.28;4962091;28;20066;-51
2021/12/20 05:02:58;;;;;;;27.08;14.40;;;;;;;3.95;100.00;96957.34;4978410;28;20061;-53
2021/12/20 05:05:28;;;;;;;24.80;13.52;;;;;;;4.07;100.00;96961.00;4978487;28;20066;-50
2021/12/20 05:08:01;;;;;;;22.30;12.02;;;;;;;3.98;100.00;96959.78;4962983;28;20062;-49
2021/12/20 05:10:32;;;;;;;28.25;14.88;;;;;;;4.04;100.00;96954.19;4966182;28;20117;-50
2021/12/20 05:13:03;;;;;;;26.67;13.40;;;;;;;3.88;100.00;96954.25;4965411;28;20078;-54
2021/12/20 05:15:32;;;;;;;28.17;14.75;;;;;;;3.89;100.00;96948.13;4956786;28;20081;-49
2021/12/20 05:18:01;;;;;;;30.75;13.43;;;;;;;4.09;100.00;96957.34;4957899;28;20077;-47
2021/12/20 05:20:30;;;;;;;28.77;13.77;;;;;;;4.08;100.00;96963.50;4957065;28;20055;-49
2021/12/20 05:22:59;;;;;;;25.98;12.15;;;;;;;4.09;100.00;96961.72;4961778;28;20128;-52
2021/12/20 05:25:28;;;;;;;23.52;12.68;;;;;;;3.71;100.00;96954.41;4960069;28;20070;-53
2021/12/20 05:27:56;;;;;;;27.17;13.45;;;;;;;3.95;100.00;96955.56;4960378;28;20516;-50
2021/12/20 05:30:24;;;;;;;18.80;10.82;;;;;;;3.96;100.00;96967.72;4982518;28;20751;-49
2021/12/20 05:32:53;;;;;;;19.42;10.98;;;;;;;3.73;100.00;96971.66;4991369;28;20544;-48
2021/12/20 05:35:23;;;;;;;25.33;12.10;;;;;;;3.90;100.00;96965.47;4974583;28;20190;-52
2021/12/20 05:37:51;;;;;;;27.83;14.32;;;;;;;3.76;100.00;96961.06;4967162;28;20074;-49
2021/12/20 05:40:21;;;;;;;24.10;13.30;;;;;;;3.92;100.00;96961.00;4991723;28;20097;-53
2021/12/20 05:42:51;;;;;;;27.90;13.30;;;;;;;3.86;100.00;96965.75;4992582;28;20054;-47
2021/12/20 05:45:21;;;;;;;26.60;13.52;;;;;;;3.93;100.00;96967.06;4987840;28;20073;-49
2021/12/20 05:47:49;;;;;;;22.55;11.82;;;;;;;3.97;100.00;96961.56;4990815;28;20069;-47
2021/12/20 05:50:20;;;;;;;22.08;12.25;;;;;;;3.81;100.00;96964.22;4992362;28;20062;-52
2021/12/20 05:52:49;;;;;;;;;;;;;;;4.10;100.00;96963.44;4984121;28;20078;-53
2021/12/20 05:55:18;;;;;;;22.13;11.77;;;;;;;4.16;100.00;96970.88;4984865;28;19956;-47
2021/12/20 05:57:47;;;;;;;29.63;13.48;;;;;;;4.24;100.00;96966.06;4989275;28;20097;-49
2021/12/20 06:00:18;;;;;;;20.48;10.52;;;;;;;4.00;100.00;96977.03;4990922;28;20539;-51
2021/12/20 06:02:49;;;;;;;24.60;13.50;;;;;;;3.97;100.00;96974.59;4985530;28;20085;-49
2021/12/20 06:05:19;;;;;;;25.08;12.88;;;;;;;4.08;100.00;96978.34;4987541;28;20082;-47
2021/12/20 06:07:47;;;;;;;29.70;13.98;;;;;;;4.13;100.00;96981.50;4988931;28;20528;-47
2021/12/20 06:10:18;;;;;;;29.17;13.90;;;;;;;4.00;100.00;96979.63;4985785;28;20082;-50
2021/12/20 06:12:47;;;;;;;27.70;13.85;;;;;;;4.13;100.00;96982.34;4982103;28;20094;-52
2021/12/20 06:15:16;;;;;;;24.27;13.18;;;;;;;4.14;100.00;96980.59;4989487;28;20077;-46
2021/12/20 06:17:44;;;;;;;26.92;12.68;;;;;;;4.21;100.00;96979.28;4994940;28;20065;-53
2021/12/20 06:20:14;;;;;;;26.13;13.70;;;;;;;4.00;100.00;96982.25;4980769;28;20548;-48
2021/12/20 06:22:42;;;;;;;27.92;13.35;;;;;;;4.28;100.00;96988.41;4982894;28;20093;-56
2021/12/20 06:25:11;;;;;;;29.10;14.13;;;;;;;4.07;100.00;96992.31;4965707;28;20653;-49
2021/12/20 06:27:42;;;;;;;30.08;14.10;;;;;;;4.19;100.00;96989.78;4968423;28;20097;-49
2021/12/20 06:30:11;;;;;;;26.30;13.65;;;;;;;4.22;100.00;96989.63;4963545;28;20653;-47
2021/12/20 06:32:42;;;;;;;28.20;13.68;;;;;;;4.16;100.00;96991.75;4961195;28;20518;-51
2021/12/20 06:35:30;;;;;;;29.08;13.95;;;;;;;4.33;100.00;96993.34;4976513;28;20074;-52
2021/12/20 06:38:01;;;;;;;31.70;14.45;;;;;;;4.44;100.00;97001.38;4986867;28;20069;-51
2021/12/20 06:40:31;;;;;;;27.08;12.63;;;;;;;4.12;100.00;97001.53;4985989;28;20580;-57
2021/12/20 06:43:01;;;;;;;28.73;13.90;;;;;;;4.27;100.00;97005.84;4985909;28;20128;-49
2021/12/20 06:45:30;;;;;;;29.90;13.93;;;;;;;4.31;100.00;97008.28;4986338;28;20062;-47
2021/12/20 06:47:58;;;;;;;25.25;13.75;;;;;;;4.40;100.00;97010.31;4980952;28;20066;-51
2021/12/20 06:50:28;;;;;;;28.95;15.20;;;;;;;4.47;100.00;97016.84;4985214;28;20070;-47
2021/12/20 06:52:56;;;;;;;27.95;14.70;;;;;;;4.36;100.00;97007.06;4984723;28;20165;-52
2021/12/20 06:55:25;;;;;;;26.08;13.90;;;;;;;4.49;100.00;97010.59;4985585;28;20708;-51
2021/12/20 06:57:54;;;;;;;27.30;13.88;;;;;;;4.52;100.00;97014.81;4989249;28;20085;-52
2021/12/20 07:00:24;;;;;;;29.40;14.85;;;;;;;4.26;100.00;97024.22;4985532;28;20521;-54
2021/12/20 07:02:52;;;;;;;25.88;12.90;;;;;;;4.29;100.00;97024.88;4992062;28;20061;-56
2021/12/20 07:05:23;;;;;;;25.20;12.98;;;;;;;4.19;100.00;97012.47;4986571;28;20077;-53
2021/12/20 07:07:52;;;;;;;31.02;16.25;;;;;;;4.71;100.00;97011.88;4979892;28;20066;-49
2021/12/20 07:10:20;;;;;;;30.85;16.20;;;;;;;4.56;100.00;97015.47;4964308;28;20047;-48
2021/12/20 07:12:50;;;;;;;26.98;15.10;;;;;;;4.56;100.00;97018.06;4963939;28;20491;-55
2021/12/20 07:15:19;;;;;;;26.58;14.93;;;;;;;4.70;100.00;97033.72;4965539;28;20078;-55
2021/12/20 07:17:49;;;;;;;26.00;14.93;;;;;;;4.57;100.00;97027.56;4965679;28;20055;-50
2021/12/20 07:20:18;;;;;;;26.60;14.52;;;;;;;4.72;100.00;97029.28;4982072;28;20070;-52
2021/12/20 07:22:46;;;;;;;28.58;15.10;;;;;;;4.59;100.00;97029.16;4994917;28;20112;-55
2021/12/20 07:25:14;;;;;;;30.52;14.95;;;;;;;4.63;100.00;97025.44;4988090;28;20113;-53
2021/12/20 07:27:47;;;;;;;30.77;15.82;;;;;;;4.47;100.00;97029.91;4991210;28;20058;-50
2021/12/20 07:30:16;;;;;;;30.83;14.57;;;;;;;4.42;100.00;97030.19;4969936;28;20067;-51
2021/12/20 07:32:45;;;;;;;29.02;14.52;;;;;;;4.58;100.00;97024.06;4966805;28;20078;-53
2021/12/20 07:35:15;;;;;;;32.10;15.40;;;;;;;4.39;100.00;97027.75;4969998;28;20071;-54
2021/12/20 07:37:44;;;;;;;30.88;14.98;;;;;;;4.55;100.00;97032.06;4971286;28;20077;-49
2021/12/20 07:40:13;;;;;;;26.88;13.57;;;;;;;4.60;100.00;97037.84;4986051;28;20627;-51
2021/12/20 07:42:42;;;;;;;28.50;14.68;;;;;;;4.62;100.00;97029.00;4993131;28;20090;-50
2021/12/20 07:45:11;;;;;;;28.77;14.35;;;;;;;4.65;100.00;97033.19;4993133;28;20070;-52
2021/12/20 07:47:48;;;;;;;27.35;15.10;;;;;;;4.68;100.00;97043.44;4982097;28;20109;-47
2021/12/20 07:50:19;;;;;;;26.70;14.13;;;;;;;4.68;100.00;97036.47;4991347;28;20062;-49
2021/12/20 07:52:48;;;;;;;31.30;14.63;;;;;;;4.88;100.00;97047.44;4987423;28;20476;-58
2021/12/20 07:55:16;;;;;;;31.60;15.75;;;;;;;4.95;100.00;97043.50;4989007;28;20128;-58
2021/12/20 07:57:45;;;;;;;29.63;14.77;;;;;;;5.13;100.00;97037.13;4989128;28;20078;-51
2021/12/20 08:00:14;;;;;;;30.30;15.02;;;;;;;4.87;100.00;97040.53;4990739;28;20762;-52
2021/12/20 08:02:43;;;;;;;28.35;14.15;;;;;;;4.83;100.00;97034.66;4973328;28;20058;-48
2021/12/20 08:05:13;;;;;;;27.90;14.57;;;;;;;4.89;100.00;97036.91;4973698;28;20081;-56
2021/12/20 08:07:45;;;;;;;26.48;14.18;;;;;;;4.76;100.00;97044.66;4982488;28;20076;-54
2021/12/20 08:10:13;;;;;;;33.15;15.23;;;;;;;4.92;100.00;97035.84;4990413;28;20086;-49
2021/12/20 08:12:42;;;;;;;27.80;13.77;;;;;;;4.64;100.00;97042.78;4998037;28;20073;-49
2021/12/20 08:15:10;;;;;;;31.00;15.15;;;;;;;5.45;100.00;97039.47;4989991;28;20074;-50
2021/12/20 08:17:39;;;;;;;27.05;14.38;;;;;;;5.14;100.00;97044.03;4985739;28;20527;-50
2021/12/20 08:20:10;;;;;;;30.38;15.05;;;;;;;5.24;100.00;97044.31;4981413;28;20070;-51
2021/12/20 08:22:39;;;;;;;28.92;14.43;;;;;;;5.11;100.00;97043.41;4965411;28;20069;-51
2021/12/20 08:25:10;;;;;;;28.73;15.40;;;;;;;5.26;100.00;97046.81;4964885;28;20083;-49
2021/12/20 08:27:38;;;;;;;29.45;13.88;;;;;;;5.20;100.00;97051.50;4986998;28;20095;-52
2021/12/20 08:30:08;;;;;;;32.75;15.77;;;;;;;5.28;100.00;97050.19;4986824;28;20077;-52
2021/12/20 08:32:37;;;;;;;28.83;15.13;;;;;;;5.38;100.00;97051.28;4982535;28;20065;-48
2021/12/20 08:35:07;;;;;;;27.40;15.45;;;;;;;5.25;100.00;97056.44;4984540;28;20066;-51
2021/12/20 08:37:35;;;;;;;26.92;14.05;;;;;;;5.39;100.00;97064.22;4989144;28;20061;-51
2021/12/20 08:40:05;;;;;;;30.52;15.27;;;;;;;5.49;100.00;97051.41;4992419;28;20168;-47
2021/12/20 08:42:35;;;;;;;29.25;14.40;;;;;;;5.44;100.00;97050.88;4986180;28;20069;-47
2021/12/20 08:45:04;;;;;;;31.47;15.80;;;;;;;5.37;100.00;97047.00;4989509;28;20488;-51
2021/12/20 08:47:32;;;;;;;29.02;14.88;;;;;;;5.33;100.00;97046.31;4975693;28;20481;-50
2021/12/20 08:50:01;;;;;;;28.63;15.35;;;;;;;5.46;100.00;97052.44;4964962;28;20074;-47
2021/12/20 08:52:30;;;;;;;27.02;14.57;;;;;;;5.39;100.00;97058.16;4965345;28;22007;-50
2021/12/20 08:54:59;;;;;;;27.85;15.23;;;;;;;5.54;100.00;97062.44;4968846;28;20067;-54
2021/12/20 08:57:27;;;;;;;26.23;14.77;;;;;;;5.38;100.00;97061.72;4986043;28;20073;-50
2021/12/20 08:59:57;;;;;;;26.25;14.70;;;;;;;5.36;100.00;97053.97;4966158;28;20066;-50
2021/12/20 09:02:25;;;;;;;30.80;15.57;;;;;;;5.44;100.00;97054.34;4963808;28;20524;-49
2021/12/20 09:04:54;;;;;;;28.77;15.10;;;;;;;5.20;100.00;97061.97;4966152;28;20070;-49
2021/12/20 09:07:22;;;;;;;27.60;13.40;;;;;;;5.43;100.00;97073.56;4969934;28;20078;-48
2021/12/20 09:09:51;;;;;;;28.33;15.32;;;;;;;5.53;100.00;97067.75;4988781;28;20065;-52
2021/12/20 09:12:20;;;;;;;27.63;14.57;;;;;;;5.73;100.00;97064.69;4997751;28;20062;-50
2021/12/20 09:14:49;;;;;;;31.10;15.70;;;;;;;5.69;100.00;97071.06;4964454;28;20074;-50
2021/12/20 09:17:19;;;;;;;29.70;14.85;;;;;;;5.72;100.00;97071.69;4960737;28;20078;-53
2021/12/20 09:19:48;;;;;;;28.43;14.27;;;;;;;5.59;100.00;97072.59;4967960;28;20070;-53
2021/12/20 09:22:16;;;;;;;29.73;15.50;;;;;;;5.70;100.00;97081.41;4993418;28;20512;-54
2021/12/20 09:24:45;;;;;;;29.65;15.73;;;;;;;5.53;100.00;97081.66;4990839;28;20081;-58
2021/12/20 09:27:13;;;;;;;32.00;15.88;;;;;;;5.88;100.00;97079.41;4989201;28;20077;-53
2021/12/20 09:29:41;;;;;;;29.00;15.13;;;;;;;6.10;100.00;97075.41;4985496;28;20062;-49
2021/12/20 09:32:10;;;;;;;29.98;14.15;;;;;;;6.07;100.00;97072.97;4977715;28;20074;-47
2021/12/20 09:34:40;;;;;;;27.98;15.68;;;;;;;6.35;100.00;97069.34;4965734;28;20065;-55
2021/12/20 09:37:08;;;;;;;30.23;15.30;;;;;;;6.33;100.00;97074.72;4991326;28;20093;-55
2021/12/20 09:39:39;;;;;;;33.67;17.45;;;;;;;6.30;100.00;97071.47;4991958;28;20496;-52
2021/12/20 09:42:09;;;;;;;32.65;16.08;;;;;;;6.79;100.00;97073.34;4985490;28;20070;-54
2021/12/20 09:44:38;;;;;;;30.48;15.52;;;;;;;6.77;100.00;97069.97;4969730;28;20078;-45
2021/12/20 09:47:07;;;;;;;28.40;15.65;;;;;;;6.81;100.00;97076.69;4976300;28;20069;-49
2021/12/20 09:49:36;;;;;;;29.95;15.93;;;;;;;6.85;100.00;97075.56;4987882;28;20542;-52
2021/12/20 09:52:06;;;;;;;26.92;15.23;;;;;;;6.86;100.00;97072.81;4961573;28;20477;-48
2021/12/20 09:54:35;;;;;;;27.30;15.57;;;;;;;6.76;100.00;97066.53;4984861;28;20554;-49
2021/12/20 09:57:06;;;;;;;27.80;14.55;;;;;;;6.62;100.00;97074.50;4970809;28;20089;-51
2021/12/20 09:59:37;;;;;;;32.28;16.02;;;;;;;7.05;100.00;97074.97;4963897;28;20077;-47
2021/12/20 10:02:08;;;;;;;27.60;15.82;;;;;;;6.99;100.00;97071.97;4962631;28;20494;-48
2021/12/20 10:04:36;;;;;;;27.55;14.20;;;;;;;7.10;100.00;97065.00;4968584;28;20078;-52
2021/12/20 10:07:06;;;;;;;27.33;15.63;;;;;;;7.60;100.00;97068.44;4987221;28;20085;-51
2021/12/20 10:09:36;;;;;;;28.60;15.82;;;;;;;7.47;100.00;97067.66;4984484;28;20096;-46
2021/12/20 10:12:16;;;;;;;26.40;14.80;;;;;;;7.34;100.00;97058.97;4985175;28;20073;-51
2021/12/20 10:14:56;;;;;;;26.45;15.15;;;;;;;7.04;100.00;97067.22;4985473;28;20074;-48
2021/12/20 10:17:26;;;;;;;24.60;13.10;;;;;;;7.68;100.00;97072.28;4989328;28;20065;-49
2021/12/20 10:19:55;;;;;;;27.05;15.20;;;;;;;7.71;100.00;97065.03;4983888;28;20066;-48
2021/12/20 10:22:30;;;;;;;26.05;14.57;;;;;;;8.25;100.00;97059.25;4988731;28;20620;-55
2021/12/20 10:24:59;;;;;;;26.60;13.57;;;;;;;8.08;100.00;97062.28;4992461;28;20078;-49
2021/12/20 10:27:29;;;;;;;21.30;12.35;;;;;;;7.88;100.00;97066.41;4985724;28;20085;-49
2021/12/20 10:29:58;;;;;;;25.40;13.35;;;;;;;8.00;100.00;97069.91;4983969;28;20533;-51
2021/12/20 10:32:42;;;;;;;21.35;12.13;;;;;;;8.06;100.00;97072.09;4984598;28;20061;-51
2021/12/20 10:35:39;;;;;;;24.40;13.15;;;;;;;7.99;100.00;97068.25;4992705;28;20058;-51
2021/12/20 10:38:22;;;;;;;23.60;12.52;;;;;;;8.54;100.00;97062.34;4992009;28;20571;-49
2021/12/20 10:40:53;;;;;;;22.00;13.13;;;;;;;8.21;100.00;97056.97;4985763;28;20085;-50
2021/12/20 10:43:23;;;;;;;21.85;12.57;;;;;;;8.38;100.00;97059.19;4981840;28;20563;-49
2021/12/20 10:45:53;;;;;;;20.23;11.30;;;;;;;8.59;100.00;97058.50;4990516;28;20078;-50
2021/12/20 10:48:42;;;;;;;19.23;12.38;;;;;;;8.55;100.00;97064.00;4987771;28;20073;-50
2021/12/20 10:51:22;;;;;;;22.30;13.05;;;;;;;7.95;100.00;97059.75;4972442;28;20081;-49
2021/12/20 10:53:58;;;;;;;22.02;11.48;;;;;;;8.09;100.00;97062.19;4982431;28;20085;-47
2021/12/20 10:56:27;;;;;;;20.05;11.55;;;;;;;8.46;100.00;97051.56;4977238;28;20070;-47
2021/12/20 10:58:57;;;;;;;17.58;10.52;;;;;;;8.68;100.00;97045.50;4971325;28;20433;-48
2021/12/20 11:04:12;;;;;;;22.00;12.18;;;;;;;8.20;100.00;97045.63;4986758;28;20082;-49
2021/12/20 11:07:02;;;;;;;17.30;10.77;;;;;;;8.21;100.00;97052.56;4992895;28;20232;-46
2021/12/20 11:09:33;;;;;;;17.93;11.53;;;;;;;7.83;100.00;97064.13;4969928;28;20085;-56
2021/12/20 11:12:02;;;;;;;;;;;;;;;7.86;100.00;97052.56;4967118;28;20074;-53
2021/12/20 11:14:33;;;;;;;21.80;11.02;;;;;;;7.98;100.00;97049.03;4979497;28;19953;-51
2021/12/20 11:17:03;;;;;;;18.30;11.07;;;;;;;8.42;100.00;97044.03;4991821;28;20069;-48
2021/12/20 11:19:33;;;;;;;20.90;11.15;;;;;;;8.05;100.00;97057.28;4996443;28;20516;-45
2021/12/20 11:22:07;;;;;;;17.90;11.13;;;;;;;8.47;100.00;97044.53;4984783;28;20086;-47
2021/12/20 11:24:40;;;;;;;19.02;10.15;;;;;;;8.53;100.00;97049.28;4990850;28;20070;-49
2021/12/20 11:27:17;;;;;;;18.60;10.13;;;;;;;8.35;100.00;97051.50;4992002;28;20082;-53
2021/12/20 11:29:47;;;;;;;17.27;9.00;;;;;;;8.69;100.00;97054.22;4987198;28;20069;-54
2021/12/20 11:32:17;;;;;;;14.50;8.82;;;;;;;8.86;100.00;97040.59;4990470;28;20066;-52
2021/12/20 11:34:47;;;;;;;18.30;9.35;;;;;;;9.25;100.00;97036.63;4983649;28;21020;-50
2021/12/20 11:37:18;;;;;;;16.92;9.20;;;;;;;9.45;100.00;97042.09;4962071;28;20078;-59
2021/12/20 11:39:49;;;;;;;17.50;8.77;;;;;;;9.15;100.00;97046.22;4968694;28;20051;-56
2021/12/20 11:42:18;;;;;;;13.10;8.20;;;;;;;9.74;100.00;97037.94;4964443;28;20570;-49
2021/12/20 11:44:48;;;;;;;11.65;7.55;;;;;;;8.65;100.00;97040.47;4981726;28;20073;-56